MSC Jordan — HPMK — position and weather

sailwx.info

Track history (hours):
 
Tides and Currents Weather Stations Pressure Air Temp Water Temp Dewpoint Dewpoint Depression Visibility Wind Speed Wind Dir Waves Ship Positions

MSC Jordan

Last reported at 2014-Dec-22 22:09 UTC. Time now 2014-Dec-23 04:27 UTC.
Position N 56°38' E 011°45'.

Length 237 m; draft 8.4 m.

Type: Ship. MMSI: 355194000.

Date/timePositionNaut miles runAvg speedWind from/ knotsBaromVisibWave heightAir tempDewpointWater temp
2014-Dec-22 22:09N 56°38' E 011°45'916.2
2014-Dec-22 21:34N 56°47' E 011°51'1818.0
2014-Dec-22 20:34N 57°04' E 011°39'1817.7
2014-Dec-22 19:34N 57°21' E 011°28'1817.5
2014-Dec-22 18:34N 57°35' E 011°09'1818.2
2014-Dec-22 17:34N 57°47' E 010°44'1918.5
2014-Dec-22 16:33N 57°45' E 010°10'9517.7
2014-Dec-22 11:11N 56°48' E 007°50'17717.8
2014-Dec-22 01:17N 54°17' E 005°07'1317.6
2014-Dec-22 00:33N 54°05' E 004°58'1817.8
2014-Dec-21 23:33N 53°48' E 004°55'1817.7
2014-Dec-21 22:33N 53°31' E 004°45'1817.7
2014-Dec-21 21:34N 53°14' E 004°36'4218.1
2014-Dec-21 19:13N 52°38' E 003°58'5617.9
2014-Dec-21 16:08N 51°48' E 003°18'914.8
2014-Dec-21 15:33N 51°40' E 003°17'1515.3
2014-Dec-21 14:33N 51°28' E 003°31'8 8.2
2014-Dec-21 13:34N 51°24' E 003°43'10 9.8
2014-Dec-21 12:33N 51°26' E 003°58'9 9.4
2014-Dec-21 11:34N 51°23' E 004°13'4 3.9
2014-Dec-21 10:34N 51°21' E 004°17'2 1.6
2014-Dec-21 09:33N 51°19' E 004°19'1 1.0
2014-Dec-21 08:33N 51°20' E 004°20'0 0.0
2014-Dec-21 07:31N 51°20' E 004°20'0 0.0
2014-Dec-21 06:31N 51°20' E 004°20'0 0.0
2014-Dec-21 05:28N 51°20' E 004°20'0 0.0
2014-Dec-21 04:33N 51°20' E 004°20'0 0.0
2014-Dec-21 03:33N 51°20' E 004°20'0 0.0
2014-Dec-21 02:32N 51°20' E 004°20'0 0.0
2014-Dec-21 01:34N 51°20' E 004°20'0 0.0
2014-Dec-21 00:31N 51°20' E 004°20'0 0.0
2014-Dec-20 23:31N 51°20' E 004°20'0 0.0
2014-Dec-20 22:34N 51°20' E 004°20'0 0.0
2014-Dec-20 21:33N 51°20' E 004°20'0 0.0
2014-Dec-20 20:33N 51°20' E 004°20'0 0.0
2014-Dec-20 19:30N 51°20' E 004°20'0 0.0
2014-Dec-20 18:31N 51°20' E 004°20'0 0.0
2014-Dec-20 17:33N 51°20' E 004°20'0 0.0
2014-Dec-20 16:32N 51°20' E 004°20'0 0.0
2014-Dec-20 15:28N 51°20' E 004°20'0 0.0
2014-Dec-20 14:32N 51°20' E 004°20'0 0.0
2014-Dec-20 13:32N 51°20' E 004°20'0 0.0
2014-Dec-20 12:32N 51°20' E 004°20'0 0.0
2014-Dec-20 11:32N 51°20' E 004°20'0 0.0
2014-Dec-20 10:32N 51°20' E 004°20'0 0.0
2014-Dec-20 09:32N 51°20' E 004°20'0 0.0
2014-Dec-20 08:32N 51°20' E 004°20'0 0.0
2014-Dec-20 07:32N 51°20' E 004°20'0 0.0
2014-Dec-20 06:08N 51°20' E 004°20'0 0.0
2014-Dec-20 05:32N 51°20' E 004°20'0 0.0
2014-Dec-20 04:32N 51°20' E 004°20'0 0.1
2014-Dec-20 03:33N 51°20' E 004°20'2 2.3
2014-Dec-20 02:34N 51°21' E 004°17'0 0.1
2014-Dec-20 01:34N 51°21' E 004°17'5 4.6
2014-Dec-20 00:33N 51°24' E 004°12'8 7.9
2014-Dec-19 23:33N 51°26' E 003°59'10 9.8
2014-Dec-19 22:33N 51°22' E 003°46'1010.2
2014-Dec-19 21:34N 51°25' E 003°30'1716.0
2014-Dec-19 20:29N 51°24' E 003°03'1313.4
2014-Dec-19 19:31N 51°22' E 002°42'5 5.0
2014-Dec-19 18:32N 51°24' E 002°35'0 0.1
2014-Dec-19 17:27N 51°24' E 002°35'0 0.1
2014-Dec-19 16:33N 51°24' E 002°36'0 0.1
2014-Dec-19 15:30N 51°24' E 002°36'0 0.1
2014-Dec-19 14:30N 51°24' E 002°36'0 0.0
2014-Dec-19 13:33N 51°24' E 002°36'0 0.1
2014-Dec-19 12:33N 51°24' E 002°36'0 0.0
2014-Dec-19 11:33N 51°24' E 002°36'0 0.0
2014-Dec-19 10:33N 51°24' E 002°36'0 0.0
2014-Dec-19 09:27N 51°24' E 002°36'0 0.0
2014-Dec-19 08:30N 51°24' E 002°36'0 0.0
2014-Dec-19 07:24N 51°24' E 002°36'0 0.0
2014-Dec-19 06:21N 51°24' E 002°36'0 0.0
2014-Dec-19 05:27N 51°24' E 002°36'0 0.0
2014-Dec-19 04:18N 51°24' E 002°36'0 0.1
2014-Dec-19 03:15N 51°24' E 002°36'0 0.0
2014-Dec-19 02:33N 51°24' E 002°36'0 0.1
2014-Dec-19 01:32N 51°24' E 002°36'0 0.1
2014-Dec-19 00:32N 51°24' E 002°36'0 0.0
2014-Dec-18 23:32N 51°24' E 002°36'0 0.0
2014-Dec-18 22:29N 51°24' E 002°36'0 0.0
2014-Dec-18 21:32N 51°24' E 002°36'0 0.1
2014-Dec-18 20:32N 51°24' E 002°36'0 0.0
2014-Dec-18 19:32N 51°24' E 002°36'0 0.0
2014-Dec-18 18:32N 51°24' E 002°36'0 0.0
2014-Dec-18 17:29N 51°24' E 002°36'0 0.0
2014-Dec-18 16:32N 51°24' E 002°36'0 0.1
2014-Dec-18 15:32N 51°24' E 002°36'0 0.0
2014-Dec-18 14:32N 51°24' E 002°36'0 0.1
2014-Dec-18 13:32N 51°24' E 002°36'0 0.0
2014-Dec-18 12:32N 51°24' E 002°36'0 0.1
2014-Dec-18 11:32N 51°24' E 002°36'5 5.0
2014-Dec-18 10:33N 51°22' E 002°29'1010.4
2014-Dec-18 09:33N 51°18' E 002°14'1818.5
2014-Dec-18 08:33N 51°07' E 001°49'1918.7
2014-Dec-18 07:33N 50°53' E 001°30'  
2014-Dec-15 23:12N 38°56' W 009°52'1116.9
2014-Dec-15 22:33N 38°45' W 009°52'1616.4
2014-Dec-15 21:33N 38°29' W 009°50'  
Track history (hours):
 
Tides and Currents Weather Stations Pressure Air Temp Water Temp Dewpoint Dewpoint Depression Visibility Wind Speed Wind Dir Waves Ship Positions

MSC Jordan

Last reported at 2014-Dec-22 22:09 UTC. Time now 2014-Dec-23 04:27 UTC.
Position N 56°38' E 011°45'.

Length 237 m; draft 8.4 m.

Type: Ship. MMSI: 355194000.

Date/timePositionNaut miles runAvg speedWind from/ knotsBaromVisibWave heightAir tempDewpointWater temp
2014-Dec-22 22:09N 56°38' E 011°45'916.2
2014-Dec-22 21:34N 56°47' E 011°51'1818.0
2014-Dec-22 20:34N 57°04' E 011°39'1817.7
2014-Dec-22 19:34N 57°21' E 011°28'1817.5
2014-Dec-22 18:34N 57°35' E 011°09'1818.2
2014-Dec-22 17:34N 57°47' E 010°44'1918.5
2014-Dec-22 16:33N 57°45' E 010°10'9517.7
2014-Dec-22 11:11N 56°48' E 007°50'17717.8
2014-Dec-22 01:17N 54°17' E 005°07'1317.6
2014-Dec-22 00:33N 54°05' E 004°58'1817.8
2014-Dec-21 23:33N 53°48' E 004°55'1817.7
2014-Dec-21 22:33N 53°31' E 004°45'1817.7
2014-Dec-21 21:34N 53°14' E 004°36'4218.1
2014-Dec-21 19:13N 52°38' E 003°58'5617.9
2014-Dec-21 16:08N 51°48' E 003°18'914.8
2014-Dec-21 15:33N 51°40' E 003°17'1515.3
2014-Dec-21 14:33N 51°28' E 003°31'8 8.2
2014-Dec-21 13:34N 51°24' E 003°43'10 9.8
2014-Dec-21 12:33N 51°26' E 003°58'9 9.4
2014-Dec-21 11:34N 51°23' E 004°13'4 3.9
2014-Dec-21 10:34N 51°21' E 004°17'2 1.6
2014-Dec-21 09:33N 51°19' E 004°19'1 1.0
2014-Dec-21 08:33N 51°20' E 004°20'0 0.0
2014-Dec-21 07:31N 51°20' E 004°20'0 0.0
2014-Dec-21 06:31N 51°20' E 004°20'0 0.0
2014-Dec-21 05:28N 51°20' E 004°20'0 0.0
2014-Dec-21 04:33N 51°20' E 004°20'0 0.0
2014-Dec-21 03:33N 51°20' E 004°20'0 0.0
2014-Dec-21 02:32N 51°20' E 004°20'0 0.0
2014-Dec-21 01:34N 51°20' E 004°20'0 0.0
2014-Dec-21 00:31N 51°20' E 004°20'0 0.0
2014-Dec-20 23:31N 51°20' E 004°20'0 0.0
2014-Dec-20 22:34N 51°20' E 004°20'0 0.0
2014-Dec-20 21:33N 51°20' E 004°20'0 0.0
2014-Dec-20 20:33N 51°20' E 004°20'0 0.0
2014-Dec-20 19:30N 51°20' E 004°20'0 0.0
2014-Dec-20 18:31N 51°20' E 004°20'0 0.0
2014-Dec-20 17:33N 51°20' E 004°20'0 0.0
2014-Dec-20 16:32N 51°20' E 004°20'0 0.0
2014-Dec-20 15:28N 51°20' E 004°20'0 0.0
2014-Dec-20 14:32N 51°20' E 004°20'0 0.0
2014-Dec-20 13:32N 51°20' E 004°20'0 0.0
2014-Dec-20 12:32N 51°20' E 004°20'0 0.0
2014-Dec-20 11:32N 51°20' E 004°20'0 0.0
2014-Dec-20 10:32N 51°20' E 004°20'0 0.0
2014-Dec-20 09:32N 51°20' E 004°20'0 0.0
2014-Dec-20 08:32N 51°20' E 004°20'0 0.0
2014-Dec-20 07:32N 51°20' E 004°20'0 0.0
2014-Dec-20 06:08N 51°20' E 004°20'0 0.0
2014-Dec-20 05:32N 51°20' E 004°20'0 0.0
2014-Dec-20 04:32N 51°20' E 004°20'0 0.1
2014-Dec-20 03:33N 51°20' E 004°20'2 2.3
2014-Dec-20 02:34N 51°21' E 004°17'0 0.1
2014-Dec-20 01:34N 51°21' E 004°17'5 4.6
2014-Dec-20 00:33N 51°24' E 004°12'8 7.9
2014-Dec-19 23:33N 51°26' E 003°59'10 9.8
2014-Dec-19 22:33N 51°22' E 003°46'1010.2
2014-Dec-19 21:34N 51°25' E 003°30'1716.0
2014-Dec-19 20:29N 51°24' E 003°03'1313.4
2014-Dec-19 19:31N 51°22' E 002°42'5 5.0
2014-Dec-19 18:32N 51°24' E 002°35'0 0.1
2014-Dec-19 17:27N 51°24' E 002°35'0 0.1
2014-Dec-19 16:33N 51°24' E 002°36'0 0.1
2014-Dec-19 15:30N 51°24' E 002°36'0 0.1
2014-Dec-19 14:30N 51°24' E 002°36'0 0.0
2014-Dec-19 13:33N 51°24' E 002°36'0 0.1
2014-Dec-19 12:33N 51°24' E 002°36'0 0.0
2014-Dec-19 11:33N 51°24' E 002°36'0 0.0
2014-Dec-19 10:33N 51°24' E 002°36'0 0.0
2014-Dec-19 09:27N 51°24' E 002°36'0 0.0
2014-Dec-19 08:30N 51°24' E 002°36'0 0.0
2014-Dec-19 07:24N 51°24' E 002°36'0 0.0
2014-Dec-19 06:21N 51°24' E 002°36'0 0.0
2014-Dec-19 05:27N 51°24' E 002°36'0 0.0
2014-Dec-19 04:18N 51°24' E 002°36'0 0.1
2014-Dec-19 03:15N 51°24' E 002°36'0 0.0
2014-Dec-19 02:33N 51°24' E 002°36'0 0.1
2014-Dec-19 01:32N 51°24' E 002°36'0 0.1
2014-Dec-19 00:32N 51°24' E 002°36'0 0.0
2014-Dec-18 23:32N 51°24' E 002°36'0 0.0
2014-Dec-18 22:29N 51°24' E 002°36'0 0.0
2014-Dec-18 21:32N 51°24' E 002°36'0 0.1
2014-Dec-18 20:32N 51°24' E 002°36'0 0.0
2014-Dec-18 19:32N 51°24' E 002°36'0 0.0
2014-Dec-18 18:32N 51°24' E 002°36'0 0.0
2014-Dec-18 17:29N 51°24' E 002°36'0 0.0
2014-Dec-18 16:32N 51°24' E 002°36'0 0.1
2014-Dec-18 15:32N 51°24' E 002°36'0 0.0
2014-Dec-18 14:32N 51°24' E 002°36'0 0.1
2014-Dec-18 13:32N 51°24' E 002°36'0 0.0
2014-Dec-18 12:32N 51°24' E 002°36'0 0.1
2014-Dec-18 11:32N 51°24' E 002°36'5 5.0
2014-Dec-18 10:33N 51°22' E 002°29'1010.4
2014-Dec-18 09:33N 51°18' E 002°14'1818.5
2014-Dec-18 08:33N 51°07' E 001°49'1918.7
2014-Dec-18 07:33N 50°53' E 001°30'  
2014-Dec-15 23:12N 38°56' W 009°52'1116.9
2014-Dec-15 22:33N 38°45' W 009°52'1616.4
2014-Dec-15 21:33N 38°29' W 009°50'  

Dump ship's entire track history